Time;durP1;ratioP1;P1;durP2;ratioP2;P2;SDS_P1;SDS_P2;PMS_P1;PMS_P2;Temp;Humidity;BMP_temperature;BMP_pressure;BME280_temperature;BME280_humidity;BME280_pressure;Samples;Min_cycle;Max_cycle;Signal;HPM_P1;HPM_P2
2021/04/03 00:02:15;;;;;;;11.70;6.00;;;7.80;91.60;;;;;;5065359;28;20258;-72
2021/04/03 00:04:41;;;;;;;8.90;5.97;;;7.80;91.90;;;;;;5050508;28;20270;-72
2021/04/03 00:07:08;;;;;;;10.47;5.97;;;7.80;92.20;;;;;;5054669;28;20226;-72
2021/04/03 00:09:35;;;;;;;9.33;5.80;;;7.80;92.40;;;;;;5054101;28;20317;-71
2021/04/03 00:12:01;;;;;;;9.27;5.60;;;7.80;92.60;;;;;;5055482;28;20294;-71
2021/04/03 00:14:28;;;;;;;8.47;5.30;;;7.80;92.90;;;;;;5051941;28;20229;-72
2021/04/03 00:16:54;;;;;;;8.10;4.93;;;7.70;93.00;;;;;;5052763;28;20264;-71
2021/04/03 00:19:20;;;;;;;10.37;5.50;;;7.70;93.20;;;;;;5056297;28;20300;-72
2021/04/03 00:21:47;;;;;;;8.17;5.50;;;7.70;93.40;;;;;;5053746;28;20213;-72
2021/04/03 00:24:13;;;;;;;8.80;5.47;;;7.70;93.60;;;;;;5055365;28;20210;-72
2021/04/03 00:26:41;;;;;;;10.83;6.43;;;7.70;93.70;;;;;;5052766;28;20238;-72
2021/04/03 00:29:07;;;;;;;9.57;5.57;;;7.70;93.90;;;;;;5058397;28;20291;-72
2021/04/03 00:31:33;;;;;;;10.30;5.80;;;7.70;94.00;;;;;;5054990;28;20305;-72
2021/04/03 00:34:00;;;;;;;8.40;5.80;;;7.70;94.20;;;;;;5057882;28;20217;-74
2021/04/03 00:36:26;;;;;;;8.67;5.47;;;7.70;94.40;;;;;;5050652;28;20226;-72
2021/04/03 00:38:53;;;;;;;9.77;5.67;;;7.60;94.50;;;;;;5057527;28;20202;-72
2021/04/03 00:41:19;;;;;;;8.17;5.43;;;7.60;94.70;;;;;;5056829;28;20292;-71
2021/04/03 00:43:46;;;;;;;9.13;5.27;;;7.60;94.80;;;;;;5049398;28;20209;-71
2021/04/03 00:46:12;;;;;;;8.30;5.03;;;7.50;94.90;;;;;;5058418;28;20235;-71
2021/04/03 00:48:39;;;;;;;11.57;5.50;;;7.50;95.20;;;;;;5057413;28;20292;-72
2021/04/03 00:51:06;;;;;;;11.87;5.37;;;7.50;95.50;;;;;;5051260;28;20205;-70
2021/04/03 00:53:33;;;;;;;8.43;4.93;;;7.50;95.80;;;;;;5053992;28;20201;-72
2021/04/03 00:56:03;;;;;;;8.47;5.20;;;7.40;95.70;;;;;;5049280;28;20308;-71
2021/04/03 00:58:29;;;;;;;9.23;5.80;;;7.30;96.20;;;;;;5056818;28;20287;-71
2021/04/03 01:00:57;;;;;;;9.13;5.37;;;7.30;96.50;;;;;;5051704;28;20210;-71
2021/04/03 01:03:25;;;;;;;8.40;5.50;;;7.30;96.70;;;;;;5051683;28;20206;-72
2021/04/03 01:05:52;;;;;;;9.17;5.43;;;7.30;96.90;;;;;;5054210;28;20248;-73
2021/04/03 01:08:18;;;;;;;7.70;5.40;;;7.30;97.10;;;;;;5051866;28;20285;-71
2021/04/03 01:10:49;;;;;;;7.10;4.67;;;7.30;97.10;;;;;;5055335;28;20670;-71
2021/04/03 01:13:35;;;;;;;9.00;4.57;;;7.30;96.90;;;;;;5057873;28;20419;-70
2021/04/03 01:16:10;;;;;;;8.27;4.07;;;7.30;96.70;;;;;;5052681;28;20253;-71
2021/04/03 01:19:03;;;;;;;4.27;3.10;;;7.30;96.60;;;;;;5053840;28;20293;-71
2021/04/03 01:21:51;;;;;;;5.37;3.40;;;7.20;96.30;;;;;;5054096;28;20229;-71
2021/04/03 01:24:27;;;;;;;7.70;3.70;;;7.20;96.10;;;;;;5051545;28;20643;-71
2021/04/03 01:27:06;;;;;;;5.23;3.53;;;7.20;96.10;;;;;;5048589;28;20250;-72
2021/04/03 01:30:13;;;;;;;6.60;3.97;;;7.20;96.20;;;;;;5053002;28;20215;-71
2021/04/03 01:32:48;;;;;;;6.63;4.00;;;7.20;96.30;;;;;;4973824;28;20208;-72
2021/04/03 01:35:18;;;;;;;6.50;4.20;;;7.30;96.50;;;;;;5042555;28;20573;-70
2021/04/03 01:37:49;;;;;;;7.30;4.63;;;7.30;96.50;;;;;;5056775;28;20205;-72
2021/04/03 01:40:20;;;;;;;8.37;4.43;;;7.30;96.30;;;;;;5054483;28;20213;-71
2021/04/03 01:42:53;;;;;;;7.67;5.00;;;7.40;96.50;;;;;;5049923;28;20328;-72
2021/04/03 01:45:23;;;;;;;7.37;4.73;;;7.50;96.70;;;;;;5053311;28;20190;-72
2021/04/03 01:47:51;;;;;;;10.37;5.77;;;7.40;96.90;;;;;;5052329;28;20213;-71
2021/04/03 01:50:20;;;;;;;7.77;5.03;;;7.50;97.20;;;;;;5058592;28;20210;-72
2021/04/03 01:52:47;;;;;;;10.20;5.20;;;7.50;97.30;;;;;;5060556;28;20268;-72
2021/04/03 01:55:14;;;;;;;8.63;5.43;;;7.60;97.40;;;;;;5051794;28;20206;-70
2021/04/03 01:57:46;;;;;;;8.43;5.17;;;7.60;97.60;;;;;;5055978;28;20301;-72
2021/04/03 02:00:15;;;;;;;7.13;4.73;;;7.60;97.90;;;;;;5059330;28;20233;-71
2021/04/03 02:02:43;;;;;;;9.60;5.43;;;7.60;97.80;;;;;;5050108;28;20880;-71
2021/04/03 02:05:12;;;;;;;10.77;5.10;;;7.50;97.90;;;;;;5055127;28;20296;-72
2021/04/03 02:07:42;;;;;;;8.73;5.53;;;7.50;98.20;;;;;;5053803;28;20213;-71
2021/04/03 02:10:10;;;;;;;9.53;4.77;;;7.50;98.50;;;;;;5048758;28;20292;-71
2021/04/03 02:12:39;;;;;;;7.07;4.50;;;7.50;98.80;;;;;;5052829;28;20332;-71
2021/04/03 02:15:09;;;;;;;6.40;4.07;;;7.50;99.10;;;;;;5056109;28;20356;-71
2021/04/03 02:17:38;;;;;;;6.47;4.00;;;7.40;99.20;;;;;;5049540;28;20217;-71
2021/04/03 02:20:08;;;;;;;6.43;3.77;;;7.30;99.10;;;;;;5059671;28;20213;-71
2021/04/03 02:22:35;;;;;;;5.97;3.50;;;7.30;99.50;;;;;;5051837;28;20201;-70
2021/04/03 02:25:05;;;;;;;7.13;3.57;;;7.20;99.50;;;;;;5054515;28;20220;-69
2021/04/03 02:27:32;;;;;;;5.00;3.17;;;7.20;99.70;;;;;;5065356;28;20205;-71
2021/04/03 02:30:11;;;;;;;6.93;3.03;;;7.10;99.70;;;;;;5060486;28;20205;-70
2021/04/03 02:32:39;;;;;;;7.97;3.33;;;7.10;99.80;;;;;;5059117;28;20210;-70
2021/04/03 02:35:08;;;;;;;5.00;3.37;;;7.00;99.80;;;;;;5063831;28;20305;-71
2021/04/03 02:37:35;;;;;;;5.47;3.30;;;6.90;99.90;;;;;;5064240;28;20228;-72
2021/04/03 02:40:02;;;;;;;6.27;3.57;;;6.90;99.90;;;;;;5066837;28;20305;-72
2021/04/03 02:42:29;;;;;;;5.17;3.33;;;6.80;99.90;;;;;;5066673;28;20634;-72
2021/04/03 02:45:03;;;;;;;5.93;3.23;;;6.80;99.90;;;;;;5060792;28;20220;-73
2021/04/03 02:47:37;;;;;;;4.07;2.40;;;6.80;99.90;;;;;;5054841;28;20228;-73
2021/04/03 02:50:07;;;;;;;3.00;2.23;;;6.80;99.90;;;;;;5061052;28;20201;-74
2021/04/03 02:52:38;;;;;;;4.10;2.97;;;6.70;99.90;;;;;;5060734;28;20202;-72
2021/04/03 02:55:06;;;;;;;4.17;2.90;;;6.70;99.90;;;;;;5061921;28;21084;-72
2021/04/03 02:57:34;;;;;;;6.03;2.77;;;6.70;99.90;;;;;;5058007;28;20305;-72
2021/04/03 03:00:04;;;;;;;4.20;2.70;;;6.60;99.90;;;;;;5059530;28;20248;-72
2021/04/03 03:02:33;;;;;;;5.90;3.20;;;6.60;99.90;;;;;;5057075;28;20206;-73
2021/04/03 03:05:02;;;;;;;7.73;2.70;;;6.50;99.90;;;;;;5061786;28;20249;-73
2021/04/03 03:07:33;;;;;;;4.00;2.70;;;6.50;99.90;;;;;;5064394;28;20201;-72
2021/04/03 03:10:01;;;;;;;4.60;3.20;;;6.40;99.90;;;;;;5066856;28;20314;-73
2021/04/03 03:12:29;;;;;;;4.30;2.53;;;6.40;99.90;;;;;;5054968;28;20233;-73
2021/04/03 03:14:59;;;;;;;4.97;3.17;;;6.30;99.90;;;;;;5064795;28;20238;-72
2021/04/03 03:17:26;;;;;;;5.90;2.90;;;6.30;99.90;;;;;;5059571;28;20640;-73
2021/04/03 03:19:53;;;;;;;3.73;2.53;;;6.30;99.90;;;;;;5060975;28;20744;-73
2021/04/03 03:22:21;;;;;;;6.07;3.17;;;6.30;99.90;;;;;;5060249;28;20206;-73
2021/04/03 03:24:49;;;;;;;4.23;2.97;;;6.40;99.90;;;;;;5054379;28;20245;-72
2021/04/03 03:27:17;;;;;;;4.30;3.13;;;6.40;99.90;;;;;;5056423;28;20208;-73
2021/04/03 03:29:45;;;;;;;4.47;3.27;;;6.40;99.90;;;;;;5063887;28;20216;-72
2021/04/03 03:32:12;;;;;;;5.27;2.60;;;6.40;99.90;;;;;;5063389;28;20220;-72
2021/04/03 03:34:39;;;;;;;4.93;3.10;;;6.30;99.90;;;;;;5057644;28;20234;-72
2021/04/03 03:37:05;;;;;;;4.73;2.90;;;6.40;99.90;;;;;;5053973;28;20314;-71
2021/04/03 03:39:32;;;;;;;4.43;2.80;;;6.30;99.90;;;;;;5061960;28;20213;-71
2021/04/03 03:42:02;;;;;;;3.33;2.33;;;6.30;99.90;;;;;;5054290;28;20213;-72
2021/04/03 03:44:29;;;;;;;2.83;2.07;;;6.30;99.90;;;;;;5065884;28;20198;-72
2021/04/03 03:46:56;;;;;;;4.57;2.57;;;6.30;99.90;;;;;;5055218;28;20555;-72
2021/04/03 03:49:22;;;;;;;4.43;2.27;;;6.20;99.90;;;;;;5060010;28;20715;-71
2021/04/03 03:51:48;;;;;;;4.47;2.60;;;6.20;99.90;;;;;;5055226;28;20210;-73
2021/04/03 03:54:15;;;;;;;4.40;2.17;;;6.20;99.90;;;;;;5062312;28;20288;-72
2021/04/03 03:56:41;;;;;;;2.47;1.97;;;6.20;99.90;;;;;;5061580;28;20226;-73
2021/04/03 03:59:09;;;;;;;2.40;1.90;;;6.20;99.90;;;;;;5054761;28;20237;-74
2021/04/03 04:01:35;;;;;;;3.40;2.17;;;6.20;99.90;;;;;;5060202;28;20297;-73
2021/04/03 04:04:02;;;;;;;2.87;2.20;;;6.10;99.90;;;;;;5054552;28;20210;-73
2021/04/03 04:06:28;;;;;;;2.93;1.70;;;6.00;99.90;;;;;;5054061;28;20367;-73
2021/04/03 04:08:55;;;;;;;2.20;1.97;;;6.00;99.90;;;;;;5059151;28;20216;-73
2021/04/03 04:11:22;;;;;;;4.07;1.97;;;5.90;99.90;;;;;;5054495;28;20210;-73
2021/04/03 04:13:49;;;;;;;2.23;1.87;;;5.90;99.90;;;;;;5059161;28;20316;-73
2021/04/03 04:16:16;;;;;;;2.93;1.83;;;5.80;99.90;;;;;;5057435;28;20313;-73
2021/04/03 04:18:42;;;;;;;3.97;2.30;;;5.80;99.90;;;;;;5062583;28;20258;-73
2021/04/03 04:21:09;;;;;;;3.30;2.20;;;5.80;99.90;;;;;;5058339;28;20254;-73
2021/04/03 04:23:35;;;;;;;4.03;2.17;;;5.70;99.90;;;;;;5053780;28;20233;-73
2021/04/03 04:26:02;;;;;;;3.53;2.37;;;5.70;99.90;;;;;;5059446;28;20285;-72
2021/04/03 04:28:28;;;;;;;4.90;2.53;;;5.70;99.90;;;;;;5054936;28;20241;-73
2021/04/03 04:30:55;;;;;;;6.53;2.90;;;5.70;99.90;;;;;;5058952;28;20210;-73
2021/04/03 04:33:22;;;;;;;4.73;2.93;;;5.80;99.90;;;;;;5051170;28;20230;-72
2021/04/03 04:35:49;;;;;;;4.13;2.93;;;5.70;99.90;;;;;;5054225;28;20761;-72
2021/04/03 04:38:15;;;;;;;4.10;2.93;;;5.70;99.90;;;;;;5064524;28;20221;-72
2021/04/03 04:40:41;;;;;;;3.83;2.43;;;5.60;99.90;;;;;;5059003;28;20218;-73
2021/04/03 04:43:08;;;;;;;6.03;3.00;;;5.60;99.90;;;;;;5061750;28;20265;-73
2021/04/03 04:45:34;;;;;;;3.97;2.60;;;5.60;99.90;;;;;;5050292;28;20285;-72
2021/04/03 04:48:01;;;;;;;3.60;2.60;;;5.60;99.90;;;;;;5051292;28;20298;-72
2021/04/03 04:50:29;;;;;;;4.90;2.33;;;5.60;99.90;;;;;;5051811;28;20209;-73
2021/04/03 04:52:55;;;;;;;2.80;2.30;;;5.60;99.90;;;;;;5054623;28;20213;-71
2021/04/03 04:55:21;;;;;;;3.73;2.70;;;5.70;99.90;;;;;;5054251;28;20680;-71
2021/04/03 04:57:48;;;;;;;5.17;2.60;;;5.70;99.90;;;;;;5059081;28;20233;-70
2021/04/03 05:00:17;;;;;;;3.63;2.50;;;5.80;99.90;;;;;;5050446;28;20259;-70
2021/04/03 05:02:43;;;;;;;5.27;2.47;;;5.80;99.90;;;;;;5059398;28;20228;-72
2021/04/03 05:05:10;;;;;;;3.90;2.50;;;5.80;99.90;;;;;;5054340;28;20583;-70
2021/04/03 05:07:37;;;;;;;2.87;2.30;;;5.80;99.90;;;;;;5057123;28;20737;-70
2021/04/03 05:10:04;;;;;;;3.47;2.30;;;5.80;99.90;;;;;;5052452;28;20325;-70
2021/04/03 05:12:31;;;;;;;4.47;2.57;;;5.80;99.90;;;;;;5050694;28;20241;-72
2021/04/03 05:14:57;;;;;;;5.50;2.57;;;5.70;99.90;;;;;;5055928;28;20228;-71
2021/04/03 05:17:24;;;;;;;4.27;2.57;;;5.80;99.90;;;;;;5055696;28;20226;-71
2021/04/03 05:19:50;;;;;;;4.20;2.70;;;5.80;99.90;;;;;;5055656;28;20566;-71
2021/04/03 05:22:17;;;;;;;2.90;2.53;;;5.80;99.90;;;;;;5066976;28;20205;-72
2021/04/03 05:24:44;;;;;;;7.47;3.10;;;5.80;99.90;;;;;;5056575;28;20210;-71
2021/04/03 05:27:11;;;;;;;4.87;2.63;;;5.70;99.90;;;;;;5052427;28;20285;-71
2021/04/03 05:29:37;;;;;;;4.03;3.50;;;5.70;99.90;;;;;;5054911;28;20284;-70
2021/04/03 05:32:05;;;;;;;4.30;3.53;;;5.70;99.90;;;;;;5052546;28;20289;-72
2021/04/03 05:34:31;;;;;;;4.60;3.63;;;5.60;99.90;;;;;;5055415;28;20524;-69
2021/04/03 05:36:58;;;;;;;5.63;3.93;;;5.60;99.90;;;;;;5047343;28;20237;-68
2021/04/03 05:39:24;;;;;;;4.20;3.43;;;5.60;99.90;;;;;;5054202;28;20237;-68
2021/04/03 05:41:51;;;;;;;4.43;3.20;;;5.60;99.90;;;;;;5054795;28;20202;-69
2021/04/03 05:44:22;;;;;;;5.60;3.57;;;5.60;99.90;;;;;;5049099;28;20303;-69
2021/04/03 05:46:49;;;;;;;3.83;3.37;;;5.70;99.90;;;;;;5053659;28;20198;-67
2021/04/03 05:49:17;;;;;;;5.70;4.03;;;5.70;99.90;;;;;;5054903;28;20214;-69
2021/04/03 05:51:44;;;;;;;4.80;3.57;;;5.70;99.90;;;;;;5058453;28;20304;-69
2021/04/03 05:54:10;;;;;;;4.53;3.50;;;5.70;99.90;;;;;;5048752;28;20304;-70
2021/04/03 05:56:38;;;;;;;6.37;3.50;;;5.70;99.90;;;;;;5051548;28;20268;-69
2021/04/03 05:59:05;;;;;;;5.23;3.97;;;5.70;99.90;;;;;;5054365;28;20202;-69
2021/04/03 06:01:33;;;;;;;4.57;3.17;;;5.70;99.90;;;;;;5052888;28;20208;-68
2021/04/03 06:04:00;;;;;;;6.03;4.50;;;5.80;99.90;;;;;;5053500;28;20248;-69
2021/04/03 06:06:27;;;;;;;4.33;3.67;;;5.80;99.90;;;;;;5052484;28;20285;-67
2021/04/03 06:08:54;;;;;;;5.57;3.83;;;5.90;99.90;;;;;;5049130;28;20213;-67
2021/04/03 06:11:22;;;;;;;5.10;3.87;;;6.00;99.90;;;;;;5053788;28;20242;-68
2021/04/03 06:14:05;;;;;;;5.90;4.50;;;6.00;99.90;;;;;;5053094;28;20246;-68
2021/04/03 06:16:33;;;;;;;4.83;3.90;;;6.00;99.90;;;;;;5053006;28;20222;-69
2021/04/03 06:19:14;;;;;;;6.57;4.53;;;6.00;99.90;;;;;;5052887;28;20643;-68
2021/04/03 06:21:43;;;;;;;6.63;4.33;;;6.10;99.90;;;;;;5053873;28;20241;-67
2021/04/03 06:24:17;;;;;;;7.63;4.50;;;6.00;99.90;;;;;;5053372;28;20216;-68
2021/04/03 06:27:02;;;;;;;5.43;3.97;;;6.00;99.90;;;;;;5042938;28;20202;-69
2021/04/03 06:29:40;;;;;;;5.33;4.33;;;6.10;99.90;;;;;;5049373;28;20650;-69
2021/04/03 06:32:09;;;;;;;4.63;3.70;;;6.10;99.90;;;;;;5053847;28;20206;-69
2021/04/03 06:34:38;;;;;;;7.27;4.43;;;6.10;99.90;;;;;;5051674;28;20539;-69
2021/04/03 06:37:06;;;;;;;5.83;4.17;;;6.30;99.90;;;;;;5053183;28;20312;-68
2021/04/03 06:39:52;;;;;;;5.33;4.10;;;6.40;99.90;;;;;;5053527;28;20574;-69
2021/04/03 06:42:39;;;;;;;4.90;3.40;;;6.50;99.90;;;;;;5048005;28;20205;-67
2021/04/03 06:45:26;;;;;;;5.60;3.57;;;6.40;99.90;;;;;;5051622;28;20229;-68
2021/04/03 06:47:54;;;;;;;7.20;4.10;;;6.40;99.90;;;;;;5048690;28;20209;-71
2021/04/03 06:50:22;;;;;;;6.07;4.40;;;6.40;99.90;;;;;;5053653;28;20229;-70
2021/04/03 06:52:49;;;;;;;7.97;3.93;;;6.30;99.90;;;;;;5049796;28;20297;-70
2021/04/03 06:55:17;;;;;;;5.33;3.83;;;6.40;99.90;;;;;;5053647;28;20671;-69
2021/04/03 06:57:45;;;;;;;4.07;3.50;;;6.40;99.90;;;;;;5053716;28;20316;-70
2021/04/03 07:00:15;;;;;;;3.67;3.23;;;6.40;99.90;;;;;;5044854;28;20214;-69
2021/04/03 07:02:50;;;;;;;5.00;3.77;;;6.40;99.90;;;;;;5053753;28;20607;-70
2021/04/03 07:05:19;;;;;;;6.87;4.00;;;6.40;99.90;;;;;;5053264;28;20202;-69
2021/04/03 07:07:46;;;;;;;5.00;4.03;;;6.40;99.90;;;;;;5053034;28;20202;-70
2021/04/03 07:10:14;;;;;;;6.30;3.83;;;6.40;99.90;;;;;;5053673;28;20337;-71
2021/04/03 07:12:42;;;;;;;9.70;4.20;;;6.50;99.90;;;;;;5056146;28;20312;-67
2021/04/03 07:15:10;;;;;;;5.33;4.30;;;6.40;99.90;;;;;;5055503;28;20226;-71
2021/04/03 07:17:39;;;;;;;6.03;4.13;;;6.30;99.90;;;;;;5056210;28;20313;-76
2021/04/03 07:20:13;;;;;;;5.53;3.97;;;6.30;99.90;;;;;;5056134;28;20210;-73
2021/04/03 07:22:43;;;;;;;5.73;4.33;;;6.20;99.90;;;;;;5055352;28;20204;-72
2021/04/03 07:25:10;;;;;;;6.50;4.00;;;6.20;99.90;;;;;;5056588;28;20209;-69
2021/04/03 07:27:40;;;;;;;5.10;4.23;;;6.30;99.90;;;;;;5056911;28;20297;-66
2021/04/03 07:30:08;;;;;;;4.53;3.93;;;6.30;99.90;;;;;;5056342;28;20217;-70
2021/04/03 07:32:38;;;;;;;4.93;4.10;;;6.30;99.90;;;;;;5055381;28;20681;-69
2021/04/03 07:35:16;;;;;;;6.43;4.30;;;6.20;99.90;;;;;;5056565;28;20206;-70
2021/04/03 07:37:43;;;;;;;5.73;3.73;;;6.20;99.90;;;;;;5052531;28;20701;-70
2021/04/03 07:40:14;;;;;;;7.50;4.10;;;6.20;99.90;;;;;;5054793;28;20297;-70
2021/04/03 07:42:41;;;;;;;7.70;4.13;;;6.10;99.90;;;;;;5055917;28;20618;-70
2021/04/03 07:45:44;;;;;;;5.23;3.97;;;6.10;99.90;;;;;;5053037;28;20213;-70
2021/04/03 07:48:14;;;;;;;4.30;3.40;;;6.10;99.90;;;;;;5045995;28;20205;-70
2021/04/03 07:50:51;;;;;;;9.67;4.60;;;6.00;99.90;;;;;;5056387;28;20616;-68
2021/04/03 07:53:34;;;;;;;7.07;5.17;;;6.00;99.90;;;;;;5056161;28;20244;-70
2021/04/03 07:56:00;;;;;;;8.40;5.43;;;6.00;99.90;;;;;;5056114;28;20572;-69
2021/04/03 07:58:28;;;;;;;6.77;5.17;;;6.00;99.90;;;;;;5056100;28;20644;-69
2021/04/03 08:00:56;;;;;;;6.63;5.47;;;6.10;99.90;;;;;;5057455;28;20301;-70
2021/04/03 08:03:23;;;;;;;6.83;5.80;;;6.20;99.90;;;;;;5056233;28;20680;-69
2021/04/03 08:05:58;;;;;;;7.13;6.13;;;6.20;99.90;;;;;;5055718;28;20651;-69
2021/04/03 08:08:26;;;;;;;10.07;5.93;;;6.30;99.90;;;;;;5054323;28;20290;-69
2021/04/03 08:11:06;;;;;;;4.37;3.97;;;6.50;99.90;;;;;;5045215;28;20214;-76
2021/04/03 08:13:32;;;;;;;4.77;3.40;;;6.60;99.90;;;;;;5056198;28;20715;-69
2021/04/03 08:16:02;;;;;;;5.43;2.90;;;6.70;99.90;;;;;;5055230;28;20210;-72
2021/04/03 08:18:30;;;;;;;3.70;3.03;;;6.90;99.90;;;;;;5055813;28;20569;-71
2021/04/03 08:20:57;;;;;;;4.57;3.10;;;7.00;99.90;;;;;;5053923;28;20285;-67
2021/04/03 08:23:31;;;;;;;3.40;3.10;;;7.10;99.90;;;;;;5053921;28;20608;-71
2021/04/03 08:25:58;;;;;;;6.03;3.57;;;7.20;99.90;;;;;;5055234;28;20257;-70
2021/04/03 08:28:24;;;;;;;5.20;4.63;;;7.20;99.90;;;;;;5054361;28;20206;-70
2021/04/03 08:30:51;;;;;;;5.70;4.97;;;7.30;99.90;;;;;;5055290;28;20216;-72
2021/04/03 08:33:18;;;;;;;7.13;5.80;;;7.40;99.90;;;;;;5055766;28;20561;-70
2021/04/03 08:35:47;;;;;;;9.87;7.60;;;7.40;99.90;;;;;;5053734;28;20239;-71
2021/04/03 08:38:20;;;;;;;9.93;8.43;;;7.40;99.90;;;;;;5053609;28;20232;-71
2021/04/03 08:40:48;;;;;;;11.80;9.53;;;7.70;99.90;;;;;;5055390;28;20205;-74
2021/04/03 08:43:23;;;;;;;8.83;7.93;;;8.00;99.90;;;;;;5046331;28;20214;-72
2021/04/03 08:45:51;;;;;;;5.50;4.17;;;8.50;99.90;;;;;;5053426;28;20237;-73
2021/04/03 08:48:17;;;;;;;5.43;3.80;;;8.90;99.90;;;;;;5055190;28;20229;-71
2021/04/03 08:50:46;;;;;;;5.70;4.40;;;9.20;99.90;;;;;;5052128;28;20293;-72
2021/04/03 08:53:12;;;;;;;5.73;5.13;;;9.20;97.90;;;;;;5047780;28;20694;-72
2021/04/03 08:55:40;;;;;;;6.03;4.90;;;9.20;96.60;;;;;;5054855;28;20520;-71
2021/04/03 08:58:08;;;;;;;5.30;4.80;;;9.20;95.80;;;;;;5055017;28;20659;-73
2021/04/03 09:00:35;;;;;;;5.70;5.17;;;9.20;95.00;;;;;;5048903;28;20661;-72
2021/04/03 09:03:02;;;;;;;5.67;5.07;;;9.30;95.40;;;;;;5055005;28;20721;-71
2021/04/03 09:05:29;;;;;;;7.43;6.63;;;9.50;95.60;;;;;;5047751;28;20206;-74
2021/04/03 09:07:56;;;;;;;6.77;5.13;;;9.80;94.90;;;;;;5056586;28;20296;-73
2021/04/03 09:10:25;;;;;;;5.53;4.17;;;10.20;94.30;;;;;;5051839;28;20278;-71
2021/04/03 09:12:53;;;;;;;5.53;5.00;;;10.70;91.80;;;;;;5049527;28;20291;-68
2021/04/03 09:15:30;;;;;;;7.17;5.00;;;10.90;90.20;;;;;;5048280;28;20222;-67
2021/04/03 09:17:58;;;;;;;5.50;3.90;;;11.20;91.30;;;;;;5048541;28;20570;-67
2021/04/03 09:20:26;;;;;;;4.80;4.30;;;11.20;86.10;;;;;;5049850;28;20202;-68
2021/04/03 09:22:55;;;;;;;5.47;4.10;;;11.60;96.30;;;;;;5051781;28;20205;-67
2021/04/03 09:25:23;;;;;;;5.53;4.40;;;12.70;84.70;;;;;;5054382;28;20218;-67
2021/04/03 09:28:04;;;;;;;3.17;2.50;;;13.30;84.00;;;;;;5052317;28;20202;-68
2021/04/03 09:30:32;;;;;;;3.50;2.40;;;14.10;62.80;;;;;;5050396;28;20225;-67
2021/04/03 09:33:17;;;;;;;3.17;2.03;;;13.90;57.60;;;;;;5052469;28;20679;-67
2021/04/03 09:35:43;;;;;;;4.50;2.40;;;13.30;57.10;;;;;;5050548;28;20660;-69
2021/04/03 09:38:10;;;;;;;3.53;2.90;;;12.80;57.30;;;;;;5048342;28;20248;-70
2021/04/03 09:40:37;;;;;;;3.17;2.53;;;12.60;64.10;;;;;;5051110;28;20212;-68
2021/04/03 09:43:05;;;;;;;5.17;2.73;;;12.60;61.70;;;;;;5048147;28;20206;-70
2021/04/03 09:45:31;;;;;;;2.57;2.30;;;12.70;59.10;;;;;;5047533;28;20580;-67
2021/04/03 09:47:58;;;;;;;3.90;2.77;;;12.80;61.10;;;;;;5049130;28;20206;-68
2021/04/03 09:50:25;;;;;;;5.47;2.10;;;12.80;58.80;;;;;;5046668;28;20206;-67
2021/04/03 09:52:52;;;;;;;3.07;1.57;;;12.70;58.10;;;;;;5049466;28;20220;-68
2021/04/03 09:55:19;;;;;;;4.70;1.90;;;12.60;57.90;;;;;;5049936;28;20252;-66
2021/04/03 09:57:45;;;;;;;1.53;1.30;;;12.40;58.50;;;;;;5051267;28;20221;-66
2021/04/03 10:00:14;;;;;;;1.63;1.50;;;12.60;58.60;;;;;;5049685;28;20301;-66
2021/04/03 10:02:40;;;;;;;3.77;1.70;;;12.80;57.70;;;;;;5049391;28;20511;-66
2021/04/03 10:05:08;;;;;;;4.23;2.27;;;13.10;58.60;;;;;;5048790;28;20559;-67
2021/04/03 10:07:34;;;;;;;4.07;2.90;;;13.40;57.10;;;;;;5050024;28;20206;-68
2021/04/03 10:10:00;;;;;;;3.43;2.10;;;13.80;57.00;;;;;;5051566;28;20214;-67
2021/04/03 10:12:27;;;;;;;2.30;1.30;;;14.10;55.70;;;;;;5047324;28;20708;-67
2021/04/03 10:14:53;;;;;;;1.80;1.20;;;14.10;54.20;;;;;;5047936;28;20225;-67
2021/04/03 10:17:20;;;;;;;1.13;1.00;;;13.80;52.00;;;;;;5049186;28;20222;-67
2021/04/03 10:19:46;;;;;;;2.13;1.50;;;13.50;51.70;;;;;;5048129;28;20717;-66
2021/04/03 10:22:13;;;;;;;2.47;1.40;;;13.30;52.10;;;;;;5053621;28;20649;-69
2021/04/03 10:24:39;;;;;;;2.57;1.50;;;13.30;53.30;;;;;;5054170;28;20553;-68
2021/04/03 10:27:06;;;;;;;2.63;1.50;;;13.60;53.30;;;;;;5051619;28;20216;-67
2021/04/03 10:29:33;;;;;;;2.53;1.40;;;14.00;52.50;;;;;;5054660;28;20212;-66
2021/04/03 10:31:59;;;;;;;1.80;1.40;;;14.40;51.60;;;;;;5051037;28;20216;-67
2021/04/03 10:34:26;;;;;;;2.40;1.40;;;14.60;50.30;;;;;;5052473;28;20301;-67
2021/04/03 10:36:53;;;;;;;2.20;1.30;;;14.70;48.90;;;;;;5052903;28;20234;-67
2021/04/03 10:39:19;;;;;;;2.40;1.30;;;14.50;48.40;;;;;;5051792;28;20245;-67
2021/04/03 10:41:45;;;;;;;2.90;1.47;;;14.20;48.60;;;;;;5052263;28;20212;-66
2021/04/03 10:44:12;;;;;;;1.77;1.40;;;13.90;49.50;;;;;;5051487;28;20316;-66
2021/04/03 10:46:38;;;;;;;1.77;1.30;;;13.50;51.30;;;;;;5052904;28;20680;-66
2021/04/03 10:49:04;;;;;;;3.73;2.07;;;13.00;52.50;;;;;;5056692;28;20243;-68
2021/04/03 10:51:32;;;;;;;4.23;2.40;;;12.50;53.70;;;;;;5055274;28;20373;-67
2021/04/03 10:53:58;;;;;;;3.10;2.57;;;12.30;55.60;;;;;;5056286;28;20206;-67
2021/04/03 10:56:25;;;;;;;4.47;2.60;;;12.30;56.90;;;;;;5054524;28;20296;-68
2021/04/03 10:58:51;;;;;;;2.73;1.93;;;12.70;58.20;;;;;;5054890;28;20206;-68
2021/04/03 11:01:17;;;;;;;2.73;2.13;;;13.30;57.80;;;;;;5055440;28;20292;-66
2021/04/03 11:03:44;;;;;;;2.30;1.40;;;14.00;56.90;;;;;;5056075;28;20840;-67
2021/04/03 11:06:10;;;;;;;1.40;1.30;;;14.60;55.70;;;;;;5056408;28;20650;-67
2021/04/03 11:08:38;;;;;;;2.87;1.50;;;15.20;54.70;;;;;;5055302;28;20232;-68
2021/04/03 11:11:05;;;;;;;2.30;1.30;;;15.70;51.20;;;;;;5055939;28;20237;-70
2021/04/03 11:13:32;;;;;;;3.40;1.40;;;16.10;50.10;;;;;;5055617;28;20242;-68
2021/04/03 11:15:58;;;;;;;3.93;1.60;;;16.40;50.10;;;;;;5049141;28;20220;-70
2021/04/03 11:18:25;;;;;;;1.80;1.20;;;16.60;50.10;;;;;;5052608;28;20304;-69
2021/04/03 11:20:51;;;;;;;1.57;1.13;;;16.60;50.50;;;;;;5054528;28;20198;-68
2021/04/03 11:23:17;;;;;;;2.77;1.30;;;16.30;49.20;;;;;;5055776;28;20595;-70
2021/04/03 11:25:46;;;;;;;1.10;0.97;;;15.90;47.90;;;;;;5056452;28;20225;-70
2021/04/03 11:28:13;;;;;;;1.87;0.83;;;15.40;46.60;;;;;;5056157;28;20198;-71
2021/04/03 11:30:39;;;;;;;1.90;0.83;;;14.80;47.10;;;;;;5054489;28;20289;-71
2021/04/03 11:33:06;;;;;;;3.90;0.97;;;14.40;48.40;;;;;;5054752;28;20257;-70
2021/04/03 11:35:35;;;;;;;1.73;0.80;;;14.40;50.60;;;;;;5050850;28;20217;-69
2021/04/03 11:38:02;;;;;;;1.80;0.93;;;14.60;50.20;;;;;;5053197;28;20304;-74
2021/04/03 11:40:28;;;;;;;2.40;0.90;;;14.50;49.70;;;;;;5055051;28;20571;-71
2021/04/03 11:42:56;;;;;;;1.60;0.80;;;14.40;49.20;;;;;;5051490;28;20217;-71
2021/04/03 11:45:23;;;;;;;1.27;0.90;;;14.10;49.90;;;;;;5054151;28;20214;-69
2021/04/03 11:47:50;;;;;;;0.63;0.63;;;13.80;47.90;;;;;;5053169;28;20206;-69
2021/04/03 11:50:17;;;;;;;3.23;0.70;;;13.40;47.00;;;;;;5054287;28;20229;-69
2021/04/03 11:52:46;;;;;;;1.17;0.60;;;13.10;46.10;;;;;;5053754;28;20228;-69
2021/04/03 11:55:15;;;;;;;1.73;0.73;;;12.50;45.40;;;;;;5044225;28;20733;-68
2021/04/03 11:57:41;;;;;;;1.00;0.60;;;12.10;46.10;;;;;;5050255;28;20222;-66
2021/04/03 12:00:10;;;;;;;1.33;0.50;;;11.90;46.70;;;;;;5050603;28;20205;-69
2021/04/03 12:02:37;;;;;;;1.20;0.70;;;11.70;47.30;;;;;;5053699;28;20206;-68
2021/04/03 12:05:04;;;;;;;1.87;1.10;;;11.60;47.90;;;;;;5054543;28;20267;-70
2021/04/03 12:07:35;;;;;;;4.07;1.20;;;11.50;48.90;;;;;;5054136;28;20633;-70
2021/04/03 12:10:01;;;;;;;3.60;1.10;;;11.50;51.80;;;;;;5052349;28;20301;-68
2021/04/03 12:12:28;;;;;;;1.07;0.70;;;11.50;53.90;;;;;;5054210;28;20249;-68
2021/04/03 12:14:55;;;;;;;3.07;0.87;;;11.40;55.50;;;;;;5052840;28;20349;-69
2021/04/03 12:17:22;;;;;;;1.37;1.03;;;11.40;56.20;;;;;;5053755;28;20218;-69
2021/04/03 12:19:48;;;;;;;1.87;0.97;;;11.30;57.10;;;;;;5054036;28;20629;-69
2021/04/03 12:22:15;;;;;;;1.30;0.93;;;11.10;57.90;;;;;;5045937;28;20681;-68
2021/04/03 12:24:41;;;;;;;3.30;0.73;;;10.80;58.40;;;;;;5053476;28;20289;-72
2021/04/03 12:27:08;;;;;;;2.13;0.60;;;10.50;56.30;;;;;;5053063;28;20217;-69
2021/04/03 12:29:34;;;;;;;1.13;0.60;;;10.50;55.10;;;;;;5054742;28;20726;-69
2021/04/03 12:32:00;;;;;;;0.43;0.43;;;10.60;56.20;;;;;;5050892;28;20201;-68
2021/04/03 12:34:28;;;;;;;0.97;0.60;;;10.90;55.50;;;;;;5053217;28;20331;-68
2021/04/03 12:36:54;;;;;;;1.43;0.40;;;11.30;53.80;;;;;;5052535;28;20333;-67
2021/04/03 12:39:21;;;;;;;0.80;0.60;;;11.50;53.10;;;;;;5053763;28;20210;-67
2021/04/03 12:41:47;;;;;;;0.97;0.60;;;11.70;52.20;;;;;;5054131;28;20825;-66
2021/04/03 12:44:13;;;;;;;2.30;0.60;;;11.90;53.00;;;;;;5053984;28;20237;-67
2021/04/03 12:46:40;;;;;;;1.90;0.97;;;12.40;51.90;;;;;;5049542;28;20244;-67
2021/04/03 12:49:06;;;;;;;2.80;1.10;;;12.60;50.30;;;;;;5044532;28;20236;-67
2021/04/03 12:51:34;;;;;;;1.33;1.23;;;12.80;49.80;;;;;;5045790;28;20216;-65
2021/04/03 12:54:00;;;;;;;1.60;0.87;;;13.00;49.60;;;;;;5051145;28;20585;-66
2021/04/03 12:56:26;;;;;;;2.87;0.70;;;13.20;49.20;;;;;;5045460;28;20202;-68
2021/04/03 12:58:53;;;;;;;1.13;0.70;;;13.30;48.10;;;;;;5051464;28;20206;-67
2021/04/03 13:01:19;;;;;;;1.27;0.60;;;13.40;47.00;;;;;;5051225;28;20317;-67